sensor_id;sensor_type;location;lat;lon;timestamp;temperature;humidity
26623;DHT22;14254;50.968;5.366;2022-07-24T00:01:58;19.60;99.90
26623;DHT22;14254;50.968;5.366;2022-07-24T00:04:23;19.70;99.90
26623;DHT22;14254;50.968;5.366;2022-07-24T00:06:49;19.70;99.90
26623;DHT22;14254;50.968;5.366;2022-07-24T00:09:15;19.60;99.90
26623;DHT22;14254;50.968;5.366;2022-07-24T00:11:41;19.60;99.90
26623;DHT22;14254;50.968;5.366;2022-07-24T00:14:07;19.60;99.90
26623;DHT22;14254;50.968;5.366;2022-07-24T00:16:33;19.60;99.90
26623;DHT22;14254;50.968;5.366;2022-07-24T00:18:58;19.60;99.90
26623;DHT22;14254;50.968;5.366;2022-07-24T00:21:24;19.70;99.90
26623;DHT22;14254;50.968;5.366;2022-07-24T00:23:50;19.60;99.90
26623;DHT22;14254;50.968;5.366;2022-07-24T00:26:15;19.60;99.90
26623;DHT22;14254;50.968;5.366;2022-07-24T00:28:41;19.70;99.90
26623;DHT22;14254;50.968;5.366;2022-07-24T00:31:07;19.70;99.90
26623;DHT22;14254;50.968;5.366;2022-07-24T00:33:33;19.70;99.90
26623;DHT22;14254;50.968;5.366;2022-07-24T00:35:58;19.70;99.90
26623;DHT22;14254;50.968;5.366;2022-07-24T00:38:24;19.60;99.90
26623;DHT22;14254;50.968;5.366;2022-07-24T00:40:49;19.50;99.90
26623;DHT22;14254;50.968;5.366;2022-07-24T00:43:15;19.50;99.90
26623;DHT22;14254;50.968;5.366;2022-07-24T00:45:43;19.40;99.90
26623;DHT22;14254;50.968;5.366;2022-07-24T00:48:08;19.30;99.90
26623;DHT22;14254;50.968;5.366;2022-07-24T00:50:34;19.30;99.90
26623;DHT22;14254;50.968;5.366;2022-07-24T00:53:00;19.30;99.90
26623;DHT22;14254;50.968;5.366;2022-07-24T00:55:26;19.30;99.90
26623;DHT22;14254;50.968;5.366;2022-07-24T00:57:52;19.30;99.90
26623;DHT22;14254;50.968;5.366;2022-07-24T01:00:19;19.30;99.90
26623;DHT22;14254;50.968;5.366;2022-07-24T01:02:46;19.40;99.90
26623;DHT22;14254;50.968;5.366;2022-07-24T01:05:12;19.40;99.90
26623;DHT22;14254;50.968;5.366;2022-07-24T01:07:38;19.40;99.90
26623;DHT22;14254;50.968;5.366;2022-07-24T01:10:05;19.40;99.90
26623;DHT22;14254;50.968;5.366;2022-07-24T01:12:32;19.40;99.90
26623;DHT22;14254;50.968;5.366;2022-07-24T01:14:58;19.40;99.90
26623;DHT22;14254;50.968;5.366;2022-07-24T01:17:29;19.30;99.90
26623;DHT22;14254;50.968;5.366;2022-07-24T01:19:55;19.40;99.90
26623;DHT22;14254;50.968;5.366;2022-07-24T01:22:20;19.10;99.90
26623;DHT22;14254;50.968;5.366;2022-07-24T01:24:46;19.00;99.90
26623;DHT22;14254;50.968;5.366;2022-07-24T01:27:14;19.00;99.90
26623;DHT22;14254;50.968;5.366;2022-07-24T01:29:39;19.00;99.90
26623;DHT22;14254;50.968;5.366;2022-07-24T01:32:05;18.90;99.90
26623;DHT22;14254;50.968;5.366;2022-07-24T01:34:31;18.80;99.90
26623;DHT22;14254;50.968;5.366;2022-07-24T01:36:56;18.80;99.90
26623;DHT22;14254;50.968;5.366;2022-07-24T01:39:22;18.80;99.90
26623;DHT22;14254;50.968;5.366;2022-07-24T01:41:48;18.70;99.90
26623;DHT22;14254;50.968;5.366;2022-07-24T01:44:13;18.60;99.90
26623;DHT22;14254;50.968;5.366;2022-07-24T01:46:39;18.70;99.90
26623;DHT22;14254;50.968;5.366;2022-07-24T01:49:07;18.70;99.90
26623;DHT22;14254;50.968;5.366;2022-07-24T01:51:33;18.50;99.90
26623;DHT22;14254;50.968;5.366;2022-07-24T01:53:58;18.40;99.90
26623;DHT22;14254;50.968;5.366;2022-07-24T01:56:24;18.10;99.90
26623;DHT22;14254;50.968;5.366;2022-07-24T01:58:49;18.00;99.90
26623;DHT22;14254;50.968;5.366;2022-07-24T02:01:15;18.00;99.90
26623;DHT22;14254;50.968;5.366;2022-07-24T02:03:41;18.00;99.90
26623;DHT22;14254;50.968;5.366;2022-07-24T02:06:06;18.00;99.90
26623;DHT22;14254;50.968;5.366;2022-07-24T02:08:32;18.00;99.90
26623;DHT22;14254;50.968;5.366;2022-07-24T02:10:58;18.00;99.90
26623;DHT22;14254;50.968;5.366;2022-07-24T02:13:23;18.00;99.90
26623;DHT22;14254;50.968;5.366;2022-07-24T02:15:51;18.00;99.90
26623;DHT22;14254;50.968;5.366;2022-07-24T02:18:17;18.10;99.90
26623;DHT22;14254;50.968;5.366;2022-07-24T02:20:43;18.10;99.90
26623;DHT22;14254;50.968;5.366;2022-07-24T02:23:09;18.00;99.90
26623;DHT22;14254;50.968;5.366;2022-07-24T02:25:34;18.00;99.90
26623;DHT22;14254;50.968;5.366;2022-07-24T02:28:00;17.90;99.90
26623;DHT22;14254;50.968;5.366;2022-07-24T02:30:26;17.70;99.90
26623;DHT22;14254;50.968;5.366;2022-07-24T02:32:52;17.80;99.90
26623;DHT22;14254;50.968;5.366;2022-07-24T02:35:18;17.80;99.90
26623;DHT22;14254;50.968;5.366;2022-07-24T02:37:44;18.00;99.90
26623;DHT22;14254;50.968;5.366;2022-07-24T02:40:11;18.20;99.90
26623;DHT22;14254;50.968;5.366;2022-07-24T02:42:37;18.30;99.90
26623;DHT22;14254;50.968;5.366;2022-07-24T02:45:05;17.80;99.90
26623;DHT22;14254;50.968;5.366;2022-07-24T02:47:31;17.70;99.90
26623;DHT22;14254;50.968;5.366;2022-07-24T02:49:57;17.40;99.90
26623;DHT22;14254;50.968;5.366;2022-07-24T02:52:22;17.30;99.90
26623;DHT22;14254;50.968;5.366;2022-07-24T02:54:48;17.30;99.90
26623;DHT22;14254;50.968;5.366;2022-07-24T02:57:14;17.40;99.90
26623;DHT22;14254;50.968;5.366;2022-07-24T02:59:39;17.40;99.90
26623;DHT22;14254;50.968;5.366;2022-07-24T03:02:05;17.40;99.90
26623;DHT22;14254;50.968;5.366;2022-07-24T03:04:31;17.40;99.90
26623;DHT22;14254;50.968;5.366;2022-07-24T03:06:57;17.40;99.90
26623;DHT22;14254;50.968;5.366;2022-07-24T03:09:23;17.40;99.90
26623;DHT22;14254;50.968;5.366;2022-07-24T03:11:48;17.40;99.90
26623;DHT22;14254;50.968;5.366;2022-07-24T03:14:14;17.50;99.90
26623;DHT22;14254;50.968;5.366;2022-07-24T03:16:39;17.50;99.90
26623;DHT22;14254;50.968;5.366;2022-07-24T03:19:05;17.50;99.90
26623;DHT22;14254;50.968;5.366;2022-07-24T03:21:31;17.50;99.90
26623;DHT22;14254;50.968;5.366;2022-07-24T03:23:56;17.50;99.90
26623;DHT22;14254;50.968;5.366;2022-07-24T03:26:22;17.40;99.90
26623;DHT22;14254;50.968;5.366;2022-07-24T03:28:47;17.30;99.90
26623;DHT22;14254;50.968;5.366;2022-07-24T03:31:13;17.20;99.90
26623;DHT22;14254;50.968;5.366;2022-07-24T03:33:39;17.20;99.90
26623;DHT22;14254;50.968;5.366;2022-07-24T03:36:05;17.20;99.90
26623;DHT22;14254;50.968;5.366;2022-07-24T03:38:30;17.20;99.90
26623;DHT22;14254;50.968;5.366;2022-07-24T03:40:56;17.10;99.90
26623;DHT22;14254;50.968;5.366;2022-07-24T03:43:22;17.10;99.90
26623;DHT22;14254;50.968;5.366;2022-07-24T03:45:47;17.10;99.90
26623;DHT22;14254;50.968;5.366;2022-07-24T03:48:13;17.20;99.90
26623;DHT22;14254;50.968;5.366;2022-07-24T03:50:38;17.20;99.90
26623;DHT22;14254;50.968;5.366;2022-07-24T03:53:04;17.20;99.90
26623;DHT22;14254;50.968;5.366;2022-07-24T03:55:30;17.20;99.90
26623;DHT22;14254;50.968;5.366;2022-07-24T03:57:55;17.10;99.90
26623;DHT22;14254;50.968;5.366;2022-07-24T04:00:21;17.00;99.90
26623;DHT22;14254;50.968;5.366;2022-07-24T04:02:47;17.00;99.90
26623;DHT22;14254;50.968;5.366;2022-07-24T04:05:12;17.00;99.90
26623;DHT22;14254;50.968;5.366;2022-07-24T04:07:39;16.90;99.90
26623;DHT22;14254;50.968;5.366;2022-07-24T04:10:06;17.00;99.90
26623;DHT22;14254;50.968;5.366;2022-07-24T04:12:33;16.80;99.90
26623;DHT22;14254;50.968;5.366;2022-07-24T04:14:59;16.70;99.90
26623;DHT22;14254;50.968;5.366;2022-07-24T04:17:24;16.80;99.90
26623;DHT22;14254;50.968;5.366;2022-07-24T04:19:50;16.80;99.90
26623;DHT22;14254;50.968;5.366;2022-07-24T04:22:16;16.70;99.90
26623;DHT22;14254;50.968;5.366;2022-07-24T04:24:42;16.70;99.90
26623;DHT22;14254;50.968;5.366;2022-07-24T04:27:07;16.80;99.90
26623;DHT22;14254;50.968;5.366;2022-07-24T04:29:33;16.80;99.90
26623;DHT22;14254;50.968;5.366;2022-07-24T04:31:59;16.80;99.90
26623;DHT22;14254;50.968;5.366;2022-07-24T04:34:24;16.70;99.90
26623;DHT22;14254;50.968;5.366;2022-07-24T04:36:50;16.80;99.90
26623;DHT22;14254;50.968;5.366;2022-07-24T04:39:15;16.80;99.90
26623;DHT22;14254;50.968;5.366;2022-07-24T04:41:41;17.00;99.90
26623;DHT22;14254;50.968;5.366;2022-07-24T04:44:07;17.10;99.90
26623;DHT22;14254;50.968;5.366;2022-07-24T04:46:33;17.10;99.90
26623;DHT22;14254;50.968;5.366;2022-07-24T04:48:58;17.10;99.90
26623;DHT22;14254;50.968;5.366;2022-07-24T04:51:24;17.20;99.90
26623;DHT22;14254;50.968;5.366;2022-07-24T04:53:50;17.20;99.90
26623;DHT22;14254;50.968;5.366;2022-07-24T04:56:19;17.30;99.90
26623;DHT22;14254;50.968;5.366;2022-07-24T04:58:45;17.30;99.90
26623;DHT22;14254;50.968;5.366;2022-07-24T05:01:11;17.30;99.90
26623;DHT22;14254;50.968;5.366;2022-07-24T05:03:37;17.40;99.90
26623;DHT22;14254;50.968;5.366;2022-07-24T05:06:02;17.40;99.90
26623;DHT22;14254;50.968;5.366;2022-07-24T05:08:28;17.50;99.90
26623;DHT22;14254;50.968;5.366;2022-07-24T05:10:54;17.60;99.90
26623;DHT22;14254;50.968;5.366;2022-07-24T05:13:19;17.70;99.90
26623;DHT22;14254;50.968;5.366;2022-07-24T05:15:45;17.70;99.90
26623;DHT22;14254;50.968;5.366;2022-07-24T05:18:11;17.80;99.90
26623;DHT22;14254;50.968;5.366;2022-07-24T05:20:37;17.90;99.90
26623;DHT22;14254;50.968;5.366;2022-07-24T05:23:02;18.00;99.90
26623;DHT22;14254;50.968;5.366;2022-07-24T05:25:28;18.20;99.90
26623;DHT22;14254;50.968;5.366;2022-07-24T05:27:54;18.40;99.90
26623;DHT22;14254;50.968;5.366;2022-07-24T05:30:19;18.50;99.90
26623;DHT22;14254;50.968;5.366;2022-07-24T05:32:45;18.60;99.90
26623;DHT22;14254;50.968;5.366;2022-07-24T05:35:11;18.70;99.90
26623;DHT22;14254;50.968;5.366;2022-07-24T05:37:36;18.80;99.90
26623;DHT22;14254;50.968;5.366;2022-07-24T05:40:03;18.90;99.90
26623;DHT22;14254;50.968;5.366;2022-07-24T05:42:29;19.10;99.90
26623;DHT22;14254;50.968;5.366;2022-07-24T05:44:54;19.30;99.90
26623;DHT22;14254;50.968;5.366;2022-07-24T05:47:20;19.30;99.90
26623;DHT22;14254;50.968;5.366;2022-07-24T05:49:46;19.30;99.90
26623;DHT22;14254;50.968;5.366;2022-07-24T05:52:11;19.50;99.90
26623;DHT22;14254;50.968;5.366;2022-07-24T05:54:37;19.70;99.90
26623;DHT22;14254;50.968;5.366;2022-07-24T05:57:03;19.80;99.90
26623;DHT22;14254;50.968;5.366;2022-07-24T05:59:28;20.00;99.90
26623;DHT22;14254;50.968;5.366;2022-07-24T06:01:54;20.00;99.90
26623;DHT22;14254;50.968;5.366;2022-07-24T06:04:20;20.10;99.90
26623;DHT22;14254;50.968;5.366;2022-07-24T06:06:46;20.20;99.90
26623;DHT22;14254;50.968;5.366;2022-07-24T06:09:11;20.30;99.90
26623;DHT22;14254;50.968;5.366;2022-07-24T06:11:37;20.40;99.90
26623;DHT22;14254;50.968;5.366;2022-07-24T06:14:03;20.50;99.90
26623;DHT22;14254;50.968;5.366;2022-07-24T06:16:28;20.60;99.90
26623;DHT22;14254;50.968;5.366;2022-07-24T06:18:54;20.70;99.90
26623;DHT22;14254;50.968;5.366;2022-07-24T06:21:20;20.90;99.90
26623;DHT22;14254;50.968;5.366;2022-07-24T06:23:45;21.00;99.90
26623;DHT22;14254;50.968;5.366;2022-07-24T06:26:11;21.10;99.90
26623;DHT22;14254;50.968;5.366;2022-07-24T06:28:37;21.20;99.90
26623;DHT22;14254;50.968;5.366;2022-07-24T06:31:02;21.20;99.90
26623;DHT22;14254;50.968;5.366;2022-07-24T06:33:28;21.20;99.90
26623;DHT22;14254;50.968;5.366;2022-07-24T06:35:54;21.20;99.90
26623;DHT22;14254;50.968;5.366;2022-07-24T06:38:20;21.20;99.90
26623;DHT22;14254;50.968;5.366;2022-07-24T06:40:45;21.20;99.90
26623;DHT22;14254;50.968;5.366;2022-07-24T06:43:11;21.30;99.90
26623;DHT22;14254;50.968;5.366;2022-07-24T06:45:37;21.40;99.90
26623;DHT22;14254;50.968;5.366;2022-07-24T06:48:03;21.50;99.90
26623;DHT22;14254;50.968;5.366;2022-07-24T06:50:29;21.60;99.90
26623;DHT22;14254;50.968;5.366;2022-07-24T06:52:55;21.60;99.90
26623;DHT22;14254;50.968;5.366;2022-07-24T06:55:21;21.80;99.90
26623;DHT22;14254;50.968;5.366;2022-07-24T06:57:47;21.70;99.90
26623;DHT22;14254;50.968;5.366;2022-07-24T07:00:13;21.80;99.90
26623;DHT22;14254;50.968;5.366;2022-07-24T07:02:39;21.80;99.90
26623;DHT22;14254;50.968;5.366;2022-07-24T07:05:06;21.90;99.90
26623;DHT22;14254;50.968;5.366;2022-07-24T07:07:33;22.00;99.90
26623;DHT22;14254;50.968;5.366;2022-07-24T07:10:00;22.20;99.90
26623;DHT22;14254;50.968;5.366;2022-07-24T07:12:26;22.10;99.90
26623;DHT22;14254;50.968;5.366;2022-07-24T07:14:51;22.20;99.90
26623;DHT22;14254;50.968;5.366;2022-07-24T07:17:17;22.30;99.90
26623;DHT22;14254;50.968;5.366;2022-07-24T07:19:43;22.40;99.90
26623;DHT22;14254;50.968;5.366;2022-07-24T07:22:11;22.50;99.90
26623;DHT22;14254;50.968;5.366;2022-07-24T07:24:37;22.60;99.90
26623;DHT22;14254;50.968;5.366;2022-07-24T07:27:03;22.60;99.90
26623;DHT22;14254;50.968;5.366;2022-07-24T07:29:29;22.80;99.90
26623;DHT22;14254;50.968;5.366;2022-07-24T07:31:55;22.70;99.90
26623;DHT22;14254;50.968;5.366;2022-07-24T07:34:20;23.00;99.90
26623;DHT22;14254;50.968;5.366;2022-07-24T07:36:46;22.90;99.90
26623;DHT22;14254;50.968;5.366;2022-07-24T07:39:11;23.00;99.90
26623;DHT22;14254;50.968;5.366;2022-07-24T07:41:37;23.20;99.90
26623;DHT22;14254;50.968;5.366;2022-07-24T07:44:03;23.20;99.90
26623;DHT22;14254;50.968;5.366;2022-07-24T07:46:29;23.30;99.90
26623;DHT22;14254;50.968;5.366;2022-07-24T07:48:55;23.40;99.90
26623;DHT22;14254;50.968;5.366;2022-07-24T07:51:21;23.50;99.90
26623;DHT22;14254;50.968;5.366;2022-07-24T07:53:46;23.60;99.90
26623;DHT22;14254;50.968;5.366;2022-07-24T07:56:12;23.80;99.90
26623;DHT22;14254;50.968;5.366;2022-07-24T07:58:38;23.90;99.90
26623;DHT22;14254;50.968;5.366;2022-07-24T08:01:04;24.00;99.90
26623;DHT22;14254;50.968;5.366;2022-07-24T08:03:30;24.10;99.90
26623;DHT22;14254;50.968;5.366;2022-07-24T08:05:55;24.10;99.90
26623;DHT22;14254;50.968;5.366;2022-07-24T08:08:21;24.30;99.90
26623;DHT22;14254;50.968;5.366;2022-07-24T08:10:46;24.40;99.90
26623;DHT22;14254;50.968;5.366;2022-07-24T08:13:12;24.50;99.90
26623;DHT22;14254;50.968;5.366;2022-07-24T08:15:40;24.60;99.90
26623;DHT22;14254;50.968;5.366;2022-07-24T08:18:06;24.50;99.90
26623;DHT22;14254;50.968;5.366;2022-07-24T08:20:32;24.60;99.90
26623;DHT22;14254;50.968;5.366;2022-07-24T08:22:57;24.80;99.90
26623;DHT22;14254;50.968;5.366;2022-07-24T08:25:23;24.90;99.90
26623;DHT22;14254;50.968;5.366;2022-07-24T08:27:49;24.90;99.90
26623;DHT22;14254;50.968;5.366;2022-07-24T08:30:15;25.00;99.90
26623;DHT22;14254;50.968;5.366;2022-07-24T08:32:41;24.90;99.90
26623;DHT22;14254;50.968;5.366;2022-07-24T08:35:07;25.10;99.90
26623;DHT22;14254;50.968;5.366;2022-07-24T08:37:37;25.30;99.90
26623;DHT22;14254;50.968;5.366;2022-07-24T08:40:03;25.30;99.90
26623;DHT22;14254;50.968;5.366;2022-07-24T08:42:29;25.60;99.90
26623;DHT22;14254;50.968;5.366;2022-07-24T08:44:55;25.70;99.90
26623;DHT22;14254;50.968;5.366;2022-07-24T08:47:21;25.70;99.90
26623;DHT22;14254;50.968;5.366;2022-07-24T08:49:48;25.70;99.90
26623;DHT22;14254;50.968;5.366;2022-07-24T08:52:18;25.50;99.90
26623;DHT22;14254;50.968;5.366;2022-07-24T08:54:44;25.60;99.90
26623;DHT22;14254;50.968;5.366;2022-07-24T08:57:10;25.60;99.90
26623;DHT22;14254;50.968;5.366;2022-07-24T08:59:36;25.80;99.90
26623;DHT22;14254;50.968;5.366;2022-07-24T09:02:01;25.80;99.90
26623;DHT22;14254;50.968;5.366;2022-07-24T09:07:06;26.30;99.90
26623;DHT22;14254;50.968;5.366;2022-07-24T09:09:32;26.40;99.90
26623;DHT22;14254;50.968;5.366;2022-07-24T09:12:05;26.30;99.90
26623;DHT22;14254;50.968;5.366;2022-07-24T09:14:33;26.30;99.90
26623;DHT22;14254;50.968;5.366;2022-07-24T09:17:04;26.50;99.90
26623;DHT22;14254;50.968;5.366;2022-07-24T09:19:30;26.50;99.90
26623;DHT22;14254;50.968;5.366;2022-07-24T09:21:57;26.40;99.90
26623;DHT22;14254;50.968;5.366;2022-07-24T09:24:22;26.40;99.90
26623;DHT22;14254;50.968;5.366;2022-07-24T09:26:53;26.40;99.90
26623;DHT22;14254;50.968;5.366;2022-07-24T09:29:21;26.50;99.90
26623;DHT22;14254;50.968;5.366;2022-07-24T09:31:51;26.60;99.90
26623;DHT22;14254;50.968;5.366;2022-07-24T09:34:17;26.80;99.90
26623;DHT22;14254;50.968;5.366;2022-07-24T09:37:04;26.90;99.90
26623;DHT22;14254;50.968;5.366;2022-07-24T09:39:32;26.90;99.90
26623;DHT22;14254;50.968;5.366;2022-07-24T09:41:59;27.00;99.90
26623;DHT22;14254;50.968;5.366;2022-07-24T09:44:25;27.00;99.90
26623;DHT22;14254;50.968;5.366;2022-07-24T09:47:05;27.20;99.90
26623;DHT22;14254;50.968;5.366;2022-07-24T09:49:33;27.00;99.90
26623;DHT22;14254;50.968;5.366;2022-07-24T09:54:35;26.90;99.90
26623;DHT22;14254;50.968;5.366;2022-07-24T09:57:29;27.10;99.90
26623;DHT22;14254;50.968;5.366;2022-07-24T10:00:04;27.30;99.90
26623;DHT22;14254;50.968;5.366;2022-07-24T10:02:32;27.30;99.20
26623;DHT22;14254;50.968;5.366;2022-07-24T10:04:59;27.30;98.80
26623;DHT22;14254;50.968;5.366;2022-07-24T10:07:26;27.30;97.90
26623;DHT22;14254;50.968;5.366;2022-07-24T10:09:54;27.30;98.30
26623;DHT22;14254;50.968;5.366;2022-07-24T10:12:22;27.50;98.60
26623;DHT22;14254;50.968;5.366;2022-07-24T10:14:51;27.60;98.80
26623;DHT22;14254;50.968;5.366;2022-07-24T10:17:17;27.80;99.00
26623;DHT22;14254;50.968;5.366;2022-07-24T10:19:50;27.90;98.30
26623;DHT22;14254;50.968;5.366;2022-07-24T10:22:18;28.00;98.10
26623;DHT22;14254;50.968;5.366;2022-07-24T10:25:04;28.00;96.30
26623;DHT22;14254;50.968;5.366;2022-07-24T10:27:36;27.90;96.10
26623;DHT22;14254;50.968;5.366;2022-07-24T10:30:11;27.90;97.00
26623;DHT22;14254;50.968;5.366;2022-07-24T10:32:38;27.80;96.40
26623;DHT22;14254;50.968;5.366;2022-07-24T10:35:13;27.90;96.40
26623;DHT22;14254;50.968;5.366;2022-07-24T10:43:08;28.40;95.50
26623;DHT22;14254;50.968;5.366;2022-07-24T10:53:45;28.40;95.20
26623;DHT22;14254;50.968;5.366;2022-07-24T10:59:05;28.70;94.80
26623;DHT22;14254;50.968;5.366;2022-07-24T11:04:26;28.90;95.20
26623;DHT22;14254;50.968;5.366;2022-07-24T11:07:11;29.00;94.70
26623;DHT22;14254;50.968;5.366;2022-07-24T11:10:08;29.20;94.30
26623;DHT22;14254;50.968;5.366;2022-07-24T11:12:42;29.20;94.40
26623;DHT22;14254;50.968;5.366;2022-07-24T11:15:12;29.20;94.90
26623;DHT22;14254;50.968;5.366;2022-07-24T11:18:13;29.20;94.20
26623;DHT22;14254;50.968;5.366;2022-07-24T11:20:40;29.30;93.60
26623;DHT22;14254;50.968;5.366;2022-07-24T11:23:19;29.20;93.60
26623;DHT22;14254;50.968;5.366;2022-07-24T11:25:45;29.20;93.70
26623;DHT22;14254;50.968;5.366;2022-07-24T11:28:12;29.20;93.60
26623;DHT22;14254;50.968;5.366;2022-07-24T11:30:43;29.30;93.40
26623;DHT22;14254;50.968;5.366;2022-07-24T11:33:10;29.50;93.00
26623;DHT22;14254;50.968;5.366;2022-07-24T11:35:37;29.60;94.00
26623;DHT22;14254;50.968;5.366;2022-07-24T11:38:05;29.60;92.90
26623;DHT22;14254;50.968;5.366;2022-07-24T11:40:32;29.70;92.60
26623;DHT22;14254;50.968;5.366;2022-07-24T11:43:01;29.90;92.70
26623;DHT22;14254;50.968;5.366;2022-07-24T11:45:27;31.30;90.80
26623;DHT22;14254;50.968;5.366;2022-07-24T11:47:52;33.10;86.20
26623;DHT22;14254;50.968;5.366;2022-07-24T11:50:24;35.40;80.90
26623;DHT22;14254;50.968;5.366;2022-07-24T11:52:50;36.40;76.60
26623;DHT22;14254;50.968;5.366;2022-07-24T11:55:18;36.80;72.90
26623;DHT22;14254;50.968;5.366;2022-07-24T11:57:47;37.00;71.70
26623;DHT22;14254;50.968;5.366;2022-07-24T12:00:16;38.10;69.00
26623;DHT22;14254;50.968;5.366;2022-07-24T12:02:50;38.90;66.80
26623;DHT22;14254;50.968;5.366;2022-07-24T12:05:26;39.20;64.10
26623;DHT22;14254;50.968;5.366;2022-07-24T12:07:53;40.40;61.20
26623;DHT22;14254;50.968;5.366;2022-07-24T12:10:21;39.00;63.00
26623;DHT22;14254;50.968;5.366;2022-07-24T12:12:49;40.20;60.70
26623;DHT22;14254;50.968;5.366;2022-07-24T12:15:15;40.20;58.90
26623;DHT22;14254;50.968;5.366;2022-07-24T12:20:31;42.10;56.90
26623;DHT22;14254;50.968;5.366;2022-07-24T12:23:00;43.00;55.00
26623;DHT22;14254;50.968;5.366;2022-07-24T12:25:26;43.80;53.90
26623;DHT22;14254;50.968;5.366;2022-07-24T12:28:07;44.50;53.30
26623;DHT22;14254;50.968;5.366;2022-07-24T12:30:34;45.70;49.80
26623;DHT22;14254;50.968;5.366;2022-07-24T12:33:05;44.00;51.10
26623;DHT22;14254;50.968;5.366;2022-07-24T12:36:07;44.10;51.00
26623;DHT22;14254;50.968;5.366;2022-07-24T12:38:51;44.10;49.90
26623;DHT22;14254;50.968;5.366;2022-07-24T12:41:19;44.40;50.10
26623;DHT22;14254;50.968;5.366;2022-07-24T12:43:52;45.30;48.80
26623;DHT22;14254;50.968;5.366;2022-07-24T12:46:23;45.00;48.60
26623;DHT22;14254;50.968;5.366;2022-07-24T12:48:59;45.10;48.90
26623;DHT22;14254;50.968;5.366;2022-07-24T12:51:25;44.30;48.80
26623;DHT22;14254;50.968;5.366;2022-07-24T12:53:55;44.50;48.80
26623;DHT22;14254;50.968;5.366;2022-07-24T12:56:21;44.60;48.10
26623;DHT22;14254;50.968;5.366;2022-07-24T12:58:58;44.60;47.70
26623;DHT22;14254;50.968;5.366;2022-07-24T13:01:28;44.80;48.70
26623;DHT22;14254;50.968;5.366;2022-07-24T13:04:03;43.10;50.00
26623;DHT22;14254;50.968;5.366;2022-07-24T13:06:39;43.10;50.20
26623;DHT22;14254;50.968;5.366;2022-07-24T13:09:06;42.00;50.60
26623;DHT22;14254;50.968;5.366;2022-07-24T13:11:32;43.20;49.80
26623;DHT22;14254;50.968;5.366;2022-07-24T13:13:57;44.60;48.80
26623;DHT22;14254;50.968;5.366;2022-07-24T13:16:29;43.80;48.50
26623;DHT22;14254;50.968;5.366;2022-07-24T13:18:55;44.00;47.70
26623;DHT22;14254;50.968;5.366;2022-07-24T13:21:21;44.00;48.90
26623;DHT22;14254;50.968;5.366;2022-07-24T13:23:47;43.40;48.20
26623;DHT22;14254;50.968;5.366;2022-07-24T13:26:12;43.00;49.50
26623;DHT22;14254;50.968;5.366;2022-07-24T13:28:38;43.10;48.80
26623;DHT22;14254;50.968;5.366;2022-07-24T13:31:04;42.90;48.90
26623;DHT22;14254;50.968;5.366;2022-07-24T13:33:30;43.70;49.10
26623;DHT22;14254;50.968;5.366;2022-07-24T13:35:56;42.60;49.90
26623;DHT22;14254;50.968;5.366;2022-07-24T13:38:22;42.70;49.40
26623;DHT22;14254;50.968;5.366;2022-07-24T13:40:47;42.70;49.40
26623;DHT22;14254;50.968;5.366;2022-07-24T13:43:13;43.10;50.00
26623;DHT22;14254;50.968;5.366;2022-07-24T13:45:39;43.60;49.50
26623;DHT22;14254;50.968;5.366;2022-07-24T13:48:05;44.20;48.00
26623;DHT22;14254;50.968;5.366;2022-07-24T13:50:30;43.70;48.60
26623;DHT22;14254;50.968;5.366;2022-07-24T13:52:56;44.90;47.30
26623;DHT22;14254;50.968;5.366;2022-07-24T13:55:22;46.40;46.60
26623;DHT22;14254;50.968;5.366;2022-07-24T13:57:47;46.10;46.00
26623;DHT22;14254;50.968;5.366;2022-07-24T14:00:13;45.40;47.20
26623;DHT22;14254;50.968;5.366;2022-07-24T14:02:39;44.90;47.80
26623;DHT22;14254;50.968;5.366;2022-07-24T14:05:05;44.60;47.10
26623;DHT22;14254;50.968;5.366;2022-07-24T14:07:31;44.90;47.70
26623;DHT22;14254;50.968;5.366;2022-07-24T14:09:56;44.80;48.40
26623;DHT22;14254;50.968;5.366;2022-07-24T14:12:22;45.00;46.80
26623;DHT22;14254;50.968;5.366;2022-07-24T14:14:48;44.60;47.90
26623;DHT22;14254;50.968;5.366;2022-07-24T14:17:13;44.70;48.70
26623;DHT22;14254;50.968;5.366;2022-07-24T14:19:39;45.70;47.10
26623;DHT22;14254;50.968;5.366;2022-07-24T14:22:05;47.00;46.60
26623;DHT22;14254;50.968;5.366;2022-07-24T14:24:30;46.80;45.30
26623;DHT22;14254;50.968;5.366;2022-07-24T14:26:56;45.20;47.50
26623;DHT22;14254;50.968;5.366;2022-07-24T14:29:23;46.50;45.90
26623;DHT22;14254;50.968;5.366;2022-07-24T14:31:49;46.20;45.80
26623;DHT22;14254;50.968;5.366;2022-07-24T14:34:15;46.00;45.10
26623;DHT22;14254;50.968;5.366;2022-07-24T14:36:40;44.10;47.30
26623;DHT22;14254;50.968;5.366;2022-07-24T14:39:06;44.60;47.50
26623;DHT22;14254;50.968;5.366;2022-07-24T14:41:33;45.10;47.00
26623;DHT22;14254;50.968;5.366;2022-07-24T14:43:59;44.90;46.60
26623;DHT22;14254;50.968;5.366;2022-07-24T14:46:24;44.70;47.80
26623;DHT22;14254;50.968;5.366;2022-07-24T14:48:50;45.50;46.00
26623;DHT22;14254;50.968;5.366;2022-07-24T14:51:15;45.80;46.00
26623;DHT22;14254;50.968;5.366;2022-07-24T14:53:41;45.50;46.00
26623;DHT22;14254;50.968;5.366;2022-07-24T14:56:07;45.50;45.10
26623;DHT22;14254;50.968;5.366;2022-07-24T14:58:33;45.20;45.60
26623;DHT22;14254;50.968;5.366;2022-07-24T15:00:58;43.50;47.60
26623;DHT22;14254;50.968;5.366;2022-07-24T15:03:24;44.60;46.90
26623;DHT22;14254;50.968;5.366;2022-07-24T15:05:50;45.00;46.40
26623;DHT22;14254;50.968;5.366;2022-07-24T15:08:15;44.40;46.50
26623;DHT22;14254;50.968;5.366;2022-07-24T15:10:41;44.50;46.60
26623;DHT22;14254;50.968;5.366;2022-07-24T15:13:07;45.50;45.70
26623;DHT22;14254;50.968;5.366;2022-07-24T15:15:33;46.90;44.80
26623;DHT22;14254;50.968;5.366;2022-07-24T15:17:59;48.30;42.90
26623;DHT22;14254;50.968;5.366;2022-07-24T15:20:24;48.60;42.10
26623;DHT22;14254;50.968;5.366;2022-07-24T15:22:50;48.60;42.30
26623;DHT22;14254;50.968;5.366;2022-07-24T15:25:16;48.40;41.90
26623;DHT22;14254;50.968;5.366;2022-07-24T15:27:41;47.80;43.20
26623;DHT22;14254;50.968;5.366;2022-07-24T15:30:07;46.70;43.80
26623;DHT22;14254;50.968;5.366;2022-07-24T15:32:33;46.80;43.60
26623;DHT22;14254;50.968;5.366;2022-07-24T15:34:59;48.10;42.80
26623;DHT22;14254;50.968;5.366;2022-07-24T15:37:25;48.70;42.30
26623;DHT22;14254;50.968;5.366;2022-07-24T15:39:50;49.00;41.60
26623;DHT22;14254;50.968;5.366;2022-07-24T15:42:16;48.10;42.40
26623;DHT22;14254;50.968;5.366;2022-07-24T15:44:42;48.30;41.90
26623;DHT22;14254;50.968;5.366;2022-07-24T15:47:07;47.00;43.20
26623;DHT22;14254;50.968;5.366;2022-07-24T15:49:33;45.50;43.70
26623;DHT22;14254;50.968;5.366;2022-07-24T15:51:59;46.70;44.00
26623;DHT22;14254;50.968;5.366;2022-07-24T15:54:24;47.10;43.30
26623;DHT22;14254;50.968;5.366;2022-07-24T15:56:50;48.00;42.50